Terminal Aerodrome Forecast
Issued by NWS Des Moines, IA

Home | Current Version | Previous Version | Text Only | Print | Product List | Glossary On
Versions: 1 2 3 4 5 6 7 8 9 10 11 12 13 14 15 16 17 18
000
FTUS43 KDMX 242321
TAFDSM
TAF
KDSM 242321Z 2500/2524 33015G24KT 2SM -SN BLSN OVC016
      TEMPO 2500/2502 3/4SM -SN SCT009 OVC010
     FM250300 33017G24KT P6SM SCT035 OVC150
     FM252100 29012KT P6SM SCT200
     FM252300 23006KT P6SM BKN140=

USA.gov is the U.S. government's official web portal to all federal, state and local government web resources and services.